sensor_id;sensor_type;location;lat;lon;timestamp;P1;durP1;ratioP1;P2;durP2;ratioP2
59109;SDS011;44895;47.438;18.978;2023-02-12T00:01:20;17.65;;;12.18;;
59109;SDS011;44895;47.438;18.978;2023-02-12T00:04:24;18.83;;;10.98;;
59109;SDS011;44895;47.438;18.978;2023-02-12T00:07:29;16.50;;;10.82;;
59109;SDS011;44895;47.438;18.978;2023-02-12T00:10:33;18.73;;;11.75;;
59109;SDS011;44895;47.438;18.978;2023-02-12T00:13:37;18.50;;;10.93;;
59109;SDS011;44895;47.438;18.978;2023-02-12T00:16:41;18.83;;;12.00;;
59109;SDS011;44895;47.438;18.978;2023-02-12T00:19:45;19.85;;;12.02;;
59109;SDS011;44895;47.438;18.978;2023-02-12T00:22:50;21.13;;;11.55;;
59109;SDS011;44895;47.438;18.978;2023-02-12T00:25:54;17.13;;;11.40;;
59109;SDS011;44895;47.438;18.978;2023-02-12T00:28:57;19.85;;;12.25;;
59109;SDS011;44895;47.438;18.978;2023-02-12T00:32:01;17.98;;;11.25;;
59109;SDS011;44895;47.438;18.978;2023-02-12T00:35:04;19.77;;;12.63;;
59109;SDS011;44895;47.438;18.978;2023-02-12T00:38:09;22.45;;;14.38;;
59109;SDS011;44895;47.438;18.978;2023-02-12T00:41:12;18.90;;;11.82;;
59109;SDS011;44895;47.438;18.978;2023-02-12T00:44:16;22.40;;;13.80;;
59109;SDS011;44895;47.438;18.978;2023-02-12T00:47:20;26.95;;;15.68;;
59109;SDS011;44895;47.438;18.978;2023-02-12T00:50:26;19.63;;;12.95;;
59109;SDS011;44895;47.438;18.978;2023-02-12T00:53:30;22.58;;;12.48;;
59109;SDS011;44895;47.438;18.978;2023-02-12T00:56:35;24.83;;;14.68;;
59109;SDS011;44895;47.438;18.978;2023-02-12T00:59:38;19.10;;;12.80;;
59109;SDS011;44895;47.438;18.978;2023-02-12T01:02:45;19.15;;;10.93;;
59109;SDS011;44895;47.438;18.978;2023-02-12T01:05:48;19.38;;;13.20;;
59109;SDS011;44895;47.438;18.978;2023-02-12T01:08:52;19.70;;;13.77;;
59109;SDS011;44895;47.438;18.978;2023-02-12T01:11:56;18.38;;;11.93;;
59109;SDS011;44895;47.438;18.978;2023-02-12T01:14:59;18.30;;;11.27;;
59109;SDS011;44895;47.438;18.978;2023-02-12T01:18:04;19.33;;;11.05;;
59109;SDS011;44895;47.438;18.978;2023-02-12T01:21:12;20.77;;;12.43;;
59109;SDS011;44895;47.438;18.978;2023-02-12T01:24:23;22.13;;;14.80;;
59109;SDS011;44895;47.438;18.978;2023-02-12T01:27:27;19.48;;;13.07;;
59109;SDS011;44895;47.438;18.978;2023-02-12T01:30:33;22.10;;;14.00;;
59109;SDS011;44895;47.438;18.978;2023-02-12T01:33:36;22.48;;;14.18;;
59109;SDS011;44895;47.438;18.978;2023-02-12T01:36:40;20.35;;;12.80;;
59109;SDS011;44895;47.438;18.978;2023-02-12T01:39:44;21.50;;;13.45;;
59109;SDS011;44895;47.438;18.978;2023-02-12T01:42:48;20.40;;;11.90;;
59109;SDS011;44895;47.438;18.978;2023-02-12T01:45:52;23.08;;;13.98;;
59109;SDS011;44895;47.438;18.978;2023-02-12T01:48:56;19.08;;;12.52;;
59109;SDS011;44895;47.438;18.978;2023-02-12T01:52:05;18.02;;;13.50;;
59109;SDS011;44895;47.438;18.978;2023-02-12T01:55:12;22.38;;;12.55;;
59109;SDS011;44895;47.438;18.978;2023-02-12T01:58:17;21.00;;;13.43;;
59109;SDS011;44895;47.438;18.978;2023-02-12T02:01:23;21.63;;;12.88;;
59109;SDS011;44895;47.438;18.978;2023-02-12T02:04:32;25.63;;;13.55;;
59109;SDS011;44895;47.438;18.978;2023-02-12T02:07:43;21.77;;;12.10;;
59109;SDS011;44895;47.438;18.978;2023-02-12T02:10:47;19.30;;;12.00;;
59109;SDS011;44895;47.438;18.978;2023-02-12T02:13:51;18.38;;;11.32;;
59109;SDS011;44895;47.438;18.978;2023-02-12T02:17:28;19.65;;;12.10;;
59109;SDS011;44895;47.438;18.978;2023-02-12T02:20:58;23.42;;;13.90;;
59109;SDS011;44895;47.438;18.978;2023-02-12T02:31:13;21.15;;;13.50;;
59109;SDS011;44895;47.438;18.978;2023-02-12T02:38:20;21.88;;;12.75;;
59109;SDS011;44895;47.438;18.978;2023-02-12T02:41:34;22.88;;;12.15;;
59109;SDS011;44895;47.438;18.978;2023-02-12T02:47:52;23.63;;;15.77;;
59109;SDS011;44895;47.438;18.978;2023-02-12T02:51:07;19.45;;;13.38;;
59109;SDS011;44895;47.438;18.978;2023-02-12T02:54:17;17.70;;;11.70;;
59109;SDS011;44895;47.438;18.978;2023-02-12T02:57:27;21.15;;;12.57;;
59109;SDS011;44895;47.438;18.978;2023-02-12T03:00:36;20.20;;;13.35;;
59109;SDS011;44895;47.438;18.978;2023-02-12T03:06:55;20.40;;;13.00;;
59109;SDS011;44895;47.438;18.978;2023-02-12T03:13:15;19.98;;;12.77;;
59109;SDS011;44895;47.438;18.978;2023-02-12T03:16:27;21.85;;;13.32;;
59109;SDS011;44895;47.438;18.978;2023-02-12T03:19:49;20.52;;;14.77;;
59109;SDS011;44895;47.438;18.978;2023-02-12T03:23:03;19.02;;;12.48;;
59109;SDS011;44895;47.438;18.978;2023-02-12T03:26:14;20.42;;;12.18;;
59109;SDS011;44895;47.438;18.978;2023-02-12T03:29:23;20.60;;;13.35;;
59109;SDS011;44895;47.438;18.978;2023-02-12T03:32:43;20.98;;;12.80;;
59109;SDS011;44895;47.438;18.978;2023-02-12T03:36:37;17.77;;;11.38;;
59109;SDS011;44895;47.438;18.978;2023-02-12T03:45:57;20.10;;;12.73;;
59109;SDS011;44895;47.438;18.978;2023-02-12T03:52:30;16.63;;;11.15;;
59109;SDS011;44895;47.438;18.978;2023-02-12T03:55:35;18.48;;;11.15;;
59109;SDS011;44895;47.438;18.978;2023-02-12T03:58:42;19.80;;;12.70;;
59109;SDS011;44895;47.438;18.978;2023-02-12T04:01:47;18.02;;;13.10;;
59109;SDS011;44895;47.438;18.978;2023-02-12T04:04:54;20.00;;;12.43;;
59109;SDS011;44895;47.438;18.978;2023-02-12T04:07:57;19.85;;;12.02;;
59109;SDS011;44895;47.438;18.978;2023-02-12T04:14:54;20.02;;;13.02;;
59109;SDS011;44895;47.438;18.978;2023-02-12T04:21:42;21.25;;;14.23;;
59109;SDS011;44895;47.438;18.978;2023-02-12T04:28:24;19.63;;;14.27;;
59109;SDS011;44895;47.438;18.978;2023-02-12T04:31:48;22.83;;;14.23;;
59109;SDS011;44895;47.438;18.978;2023-02-12T04:35:14;24.60;;;15.55;;
59109;SDS011;44895;47.438;18.978;2023-02-12T04:38:39;20.95;;;12.10;;
59109;SDS011;44895;47.438;18.978;2023-02-12T04:41:48;24.08;;;15.00;;
59109;SDS011;44895;47.438;18.978;2023-02-12T04:44:53;17.83;;;11.65;;
59109;SDS011;44895;47.438;18.978;2023-02-12T04:47:57;21.35;;;12.20;;
59109;SDS011;44895;47.438;18.978;2023-02-12T04:51:01;21.90;;;12.13;;
59109;SDS011;44895;47.438;18.978;2023-02-12T04:54:05;20.60;;;12.75;;
59109;SDS011;44895;47.438;18.978;2023-02-12T04:57:10;19.85;;;11.65;;
59109;SDS011;44895;47.438;18.978;2023-02-12T05:00:13;19.33;;;11.00;;
59109;SDS011;44895;47.438;18.978;2023-02-12T05:03:17;16.77;;;11.32;;
59109;SDS011;44895;47.438;18.978;2023-02-12T05:06:21;17.17;;;10.63;;
59109;SDS011;44895;47.438;18.978;2023-02-12T05:09:25;18.48;;;11.50;;
59109;SDS011;44895;47.438;18.978;2023-02-12T05:12:29;19.63;;;10.95;;
59109;SDS011;44895;47.438;18.978;2023-02-12T05:15:33;18.92;;;11.55;;
59109;SDS011;44895;47.438;18.978;2023-02-12T05:18:37;18.20;;;11.00;;
59109;SDS011;44895;47.438;18.978;2023-02-12T05:21:40;20.48;;;11.43;;
59109;SDS011;44895;47.438;18.978;2023-02-12T05:24:44;21.23;;;11.75;;
59109;SDS011;44895;47.438;18.978;2023-02-12T05:27:48;16.15;;;9.68;;
59109;SDS011;44895;47.438;18.978;2023-02-12T05:30:51;16.10;;;9.48;;
59109;SDS011;44895;47.438;18.978;2023-02-12T05:33:55;17.02;;;11.23;;
59109;SDS011;44895;47.438;18.978;2023-02-12T05:36:59;20.52;;;11.38;;
59109;SDS011;44895;47.438;18.978;2023-02-12T05:40:04;15.65;;;9.90;;
59109;SDS011;44895;47.438;18.978;2023-02-12T05:43:09;14.70;;;9.20;;
59109;SDS011;44895;47.438;18.978;2023-02-12T05:46:13;15.60;;;9.60;;
59109;SDS011;44895;47.438;18.978;2023-02-12T05:49:17;16.25;;;10.02;;
59109;SDS011;44895;47.438;18.978;2023-02-12T05:52:20;18.50;;;11.43;;
59109;SDS011;44895;47.438;18.978;2023-02-12T05:55:24;16.25;;;11.05;;
59109;SDS011;44895;47.438;18.978;2023-02-12T05:58:28;20.70;;;11.75;;
59109;SDS011;44895;47.438;18.978;2023-02-12T06:01:33;21.38;;;11.80;;
59109;SDS011;44895;47.438;18.978;2023-02-12T06:04:38;19.25;;;12.00;;
59109;SDS011;44895;47.438;18.978;2023-02-12T06:07:42;19.15;;;12.68;;
59109;SDS011;44895;47.438;18.978;2023-02-12T06:10:46;19.58;;;11.73;;
59109;SDS011;44895;47.438;18.978;2023-02-12T06:13:50;17.92;;;12.02;;
59109;SDS011;44895;47.438;18.978;2023-02-12T06:16:54;20.92;;;13.18;;
59109;SDS011;44895;47.438;18.978;2023-02-12T06:19:58;18.13;;;11.50;;
59109;SDS011;44895;47.438;18.978;2023-02-12T06:23:02;23.67;;;13.57;;
59109;SDS011;44895;47.438;18.978;2023-02-12T06:26:06;19.05;;;12.70;;
59109;SDS011;44895;47.438;18.978;2023-02-12T06:29:10;20.85;;;13.27;;
59109;SDS011;44895;47.438;18.978;2023-02-12T06:32:15;18.17;;;10.88;;
59109;SDS011;44895;47.438;18.978;2023-02-12T06:35:18;16.10;;;10.70;;
59109;SDS011;44895;47.438;18.978;2023-02-12T06:38:22;19.40;;;12.60;;
59109;SDS011;44895;47.438;18.978;2023-02-12T06:41:26;18.92;;;11.85;;
59109;SDS011;44895;47.438;18.978;2023-02-12T06:44:29;19.30;;;12.13;;
59109;SDS011;44895;47.438;18.978;2023-02-12T06:47:33;21.83;;;14.60;;
59109;SDS011;44895;47.438;18.978;2023-02-12T06:50:37;20.98;;;12.70;;
59109;SDS011;44895;47.438;18.978;2023-02-12T06:53:40;17.27;;;10.25;;
59109;SDS011;44895;47.438;18.978;2023-02-12T06:56:45;18.95;;;10.73;;
59109;SDS011;44895;47.438;18.978;2023-02-12T06:59:48;21.10;;;10.88;;
59109;SDS011;44895;47.438;18.978;2023-02-12T07:02:55;16.45;;;10.68;;
59109;SDS011;44895;47.438;18.978;2023-02-12T07:05:59;18.65;;;10.43;;
59109;SDS011;44895;47.438;18.978;2023-02-12T07:09:03;19.52;;;11.27;;
59109;SDS011;44895;47.438;18.978;2023-02-12T07:12:07;18.65;;;12.10;;
59109;SDS011;44895;47.438;18.978;2023-02-12T07:15:11;15.80;;;10.13;;
59109;SDS011;44895;47.438;18.978;2023-02-12T07:18:16;23.00;;;10.77;;
59109;SDS011;44895;47.438;18.978;2023-02-12T07:21:19;16.42;;;10.02;;
59109;SDS011;44895;47.438;18.978;2023-02-12T07:24:23;17.17;;;9.60;;
59109;SDS011;44895;47.438;18.978;2023-02-12T07:27:27;14.50;;;9.35;;
59109;SDS011;44895;47.438;18.978;2023-02-12T07:30:31;13.98;;;9.27;;
59109;SDS011;44895;47.438;18.978;2023-02-12T07:33:35;14.93;;;9.38;;
59109;SDS011;44895;47.438;18.978;2023-02-12T07:36:39;16.23;;;10.52;;
59109;SDS011;44895;47.438;18.978;2023-02-12T07:39:44;13.70;;;7.97;;
59109;SDS011;44895;47.438;18.978;2023-02-12T07:42:48;16.73;;;9.95;;
59109;SDS011;44895;47.438;18.978;2023-02-12T07:46:04;16.30;;;10.48;;
59109;SDS011;44895;47.438;18.978;2023-02-12T07:49:20;13.70;;;8.85;;
59109;SDS011;44895;47.438;18.978;2023-02-12T07:52:24;14.63;;;8.18;;
59109;SDS011;44895;47.438;18.978;2023-02-12T07:55:28;12.80;;;8.10;;
59109;SDS011;44895;47.438;18.978;2023-02-12T07:58:32;12.82;;;8.65;;
59109;SDS011;44895;47.438;18.978;2023-02-12T08:01:37;15.60;;;9.75;;
59109;SDS011;44895;47.438;18.978;2023-02-12T08:04:43;15.82;;;9.70;;
59109;SDS011;44895;47.438;18.978;2023-02-12T08:07:46;12.63;;;9.00;;
59109;SDS011;44895;47.438;18.978;2023-02-12T08:10:50;12.23;;;7.55;;
59109;SDS011;44895;47.438;18.978;2023-02-12T08:13:55;13.02;;;7.63;;
59109;SDS011;44895;47.438;18.978;2023-02-12T08:16:59;11.63;;;6.40;;
59109;SDS011;44895;47.438;18.978;2023-02-12T08:20:03;14.35;;;8.98;;
59109;SDS011;44895;47.438;18.978;2023-02-12T08:23:07;14.02;;;9.25;;
59109;SDS011;44895;47.438;18.978;2023-02-12T08:26:30;11.18;;;6.43;;
59109;SDS011;44895;47.438;18.978;2023-02-12T08:29:35;10.57;;;6.60;;
59109;SDS011;44895;47.438;18.978;2023-02-12T08:32:39;9.57;;;5.72;;
59109;SDS011;44895;47.438;18.978;2023-02-12T08:35:42;14.10;;;7.95;;
59109;SDS011;44895;47.438;18.978;2023-02-12T08:38:46;14.02;;;6.18;;
59109;SDS011;44895;47.438;18.978;2023-02-12T08:41:52;11.43;;;5.70;;
59109;SDS011;44895;47.438;18.978;2023-02-12T08:44:57;15.52;;;6.93;;
59109;SDS011;44895;47.438;18.978;2023-02-12T08:48:01;10.70;;;6.72;;
59109;SDS011;44895;47.438;18.978;2023-02-12T08:51:18;11.98;;;7.15;;
59109;SDS011;44895;47.438;18.978;2023-02-12T08:54:25;10.38;;;6.30;;
59109;SDS011;44895;47.438;18.978;2023-02-12T08:57:30;11.05;;;5.25;;
59109;SDS011;44895;47.438;18.978;2023-02-12T09:00:34;10.43;;;5.40;;
59109;SDS011;44895;47.438;18.978;2023-02-12T09:03:38;8.90;;;4.90;;
59109;SDS011;44895;47.438;18.978;2023-02-12T09:06:42;8.77;;;4.55;;
59109;SDS011;44895;47.438;18.978;2023-02-12T09:09:46;10.27;;;4.88;;
59109;SDS011;44895;47.438;18.978;2023-02-12T09:12:50;9.48;;;4.55;;
59109;SDS011;44895;47.438;18.978;2023-02-12T09:15:54;7.30;;;3.75;;
59109;SDS011;44895;47.438;18.978;2023-02-12T09:18:57;7.55;;;3.92;;
59109;SDS011;44895;47.438;18.978;2023-02-12T09:22:01;8.75;;;4.20;;
59109;SDS011;44895;47.438;18.978;2023-02-12T09:25:05;10.18;;;6.18;;
59109;SDS011;44895;47.438;18.978;2023-02-12T09:28:09;8.77;;;4.60;;
59109;SDS011;44895;47.438;18.978;2023-02-12T09:31:15;8.10;;;4.45;;
59109;SDS011;44895;47.438;18.978;2023-02-12T09:34:23;9.85;;;5.47;;
59109;SDS011;44895;47.438;18.978;2023-02-12T09:37:27;13.13;;;6.53;;
59109;SDS011;44895;47.438;18.978;2023-02-12T09:43:48;10.18;;;5.97;;
59109;SDS011;44895;47.438;18.978;2023-02-12T09:46:57;10.43;;;5.95;;
59109;SDS011;44895;47.438;18.978;2023-02-12T09:54:02;9.73;;;5.53;;
59109;SDS011;44895;47.438;18.978;2023-02-12T09:57:30;9.75;;;5.70;;
59109;SDS011;44895;47.438;18.978;2023-02-12T10:00:37;11.65;;;7.60;;
59109;SDS011;44895;47.438;18.978;2023-02-12T10:03:41;11.82;;;6.78;;
59109;SDS011;44895;47.438;18.978;2023-02-12T10:07:32;10.18;;;6.07;;
59109;SDS011;44895;47.438;18.978;2023-02-12T10:13:45;12.02;;;5.85;;
59109;SDS011;44895;47.438;18.978;2023-02-12T10:27:57;15.18;;;8.73;;
59109;SDS011;44895;47.438;18.978;2023-02-12T10:31:06;11.25;;;7.22;;
59109;SDS011;44895;47.438;18.978;2023-02-12T10:34:19;11.82;;;7.10;;
59109;SDS011;44895;47.438;18.978;2023-02-12T10:37:35;14.60;;;7.90;;
59109;SDS011;44895;47.438;18.978;2023-02-12T10:40:45;12.98;;;7.35;;
59109;SDS011;44895;47.438;18.978;2023-02-12T10:43:49;11.32;;;7.60;;
59109;SDS011;44895;47.438;18.978;2023-02-12T10:46:53;9.70;;;5.97;;
59109;SDS011;44895;47.438;18.978;2023-02-12T10:49:58;10.98;;;6.05;;
59109;SDS011;44895;47.438;18.978;2023-02-12T10:53:03;11.40;;;5.85;;
59109;SDS011;44895;47.438;18.978;2023-02-12T10:59:20;10.20;;;5.93;;
59109;SDS011;44895;47.438;18.978;2023-02-12T11:02:27;10.20;;;4.95;;
59109;SDS011;44895;47.438;18.978;2023-02-12T11:05:37;10.95;;;6.22;;
59109;SDS011;44895;47.438;18.978;2023-02-12T11:08:44;10.88;;;5.80;;
59109;SDS011;44895;47.438;18.978;2023-02-12T11:11:49;12.50;;;5.80;;
59109;SDS011;44895;47.438;18.978;2023-02-12T11:14:57;11.32;;;6.05;;
59109;SDS011;44895;47.438;18.978;2023-02-12T11:18:04;10.68;;;5.75;;
59109;SDS011;44895;47.438;18.978;2023-02-12T11:21:10;10.40;;;6.63;;
59109;SDS011;44895;47.438;18.978;2023-02-12T11:27:29;11.20;;;5.88;;
59109;SDS011;44895;47.438;18.978;2023-02-12T11:30:34;11.90;;;6.30;;
59109;SDS011;44895;47.438;18.978;2023-02-12T11:33:39;12.07;;;6.10;;
59109;SDS011;44895;47.438;18.978;2023-02-12T11:36:49;12.15;;;6.28;;
59109;SDS011;44895;47.438;18.978;2023-02-12T11:39:55;10.93;;;6.20;;
59109;SDS011;44895;47.438;18.978;2023-02-12T11:43:05;11.82;;;6.47;;
59109;SDS011;44895;47.438;18.978;2023-02-12T11:46:16;12.35;;;5.25;;
59109;SDS011;44895;47.438;18.978;2023-02-12T11:49:24;9.60;;;4.80;;
59109;SDS011;44895;47.438;18.978;2023-02-12T11:52:32;10.02;;;5.72;;
59109;SDS011;44895;47.438;18.978;2023-02-12T11:55:39;8.73;;;4.07;;
59109;SDS011;44895;47.438;18.978;2023-02-12T11:58:44;7.60;;;3.58;;
59109;SDS011;44895;47.438;18.978;2023-02-12T12:01:50;8.93;;;4.00;;
59109;SDS011;44895;47.438;18.978;2023-02-12T12:05:02;7.07;;;3.47;;
59109;SDS011;44895;47.438;18.978;2023-02-12T12:08:22;8.95;;;4.63;;
59109;SDS011;44895;47.438;18.978;2023-02-12T12:14:52;9.20;;;4.88;;
59109;SDS011;44895;47.438;18.978;2023-02-12T12:21:46;8.88;;;4.05;;
59109;SDS011;44895;47.438;18.978;2023-02-12T12:25:03;9.23;;;4.25;;
59109;SDS011;44895;47.438;18.978;2023-02-12T12:31:36;8.35;;;4.07;;
59109;SDS011;44895;47.438;18.978;2023-02-12T12:34:43;10.02;;;4.40;;
59109;SDS011;44895;47.438;18.978;2023-02-12T12:37:58;7.63;;;4.18;;
59109;SDS011;44895;47.438;18.978;2023-02-12T12:41:14;9.55;;;4.82;;
59109;SDS011;44895;47.438;18.978;2023-02-12T12:51:40;10.48;;;4.32;;
59109;SDS011;44895;47.438;18.978;2023-02-12T12:58:39;8.65;;;4.45;;
59109;SDS011;44895;47.438;18.978;2023-02-12T13:12:33;19.73;;;11.15;;
59109;SDS011;44895;47.438;18.978;2023-02-12T13:19:27;22.58;;;13.60;;
59109;SDS011;44895;47.438;18.978;2023-02-12T13:23:00;19.08;;;12.95;;
59109;SDS011;44895;47.438;18.978;2023-02-12T13:26:27;21.67;;;13.68;;
59109;SDS011;44895;47.438;18.978;2023-02-12T13:30:00;22.08;;;13.82;;
59109;SDS011;44895;47.438;18.978;2023-02-12T13:33:28;19.95;;;14.05;;
59109;SDS011;44895;47.438;18.978;2023-02-12T13:36:44;22.73;;;13.55;;
59109;SDS011;44895;47.438;18.978;2023-02-12T13:39:49;21.70;;;13.13;;
59109;SDS011;44895;47.438;18.978;2023-02-12T13:56:58;15.70;;;10.10;;
59109;SDS011;44895;47.438;18.978;2023-02-12T14:00:04;18.33;;;11.20;;
59109;SDS011;44895;47.438;18.978;2023-02-12T14:03:30;18.20;;;11.23;;
59109;SDS011;44895;47.438;18.978;2023-02-12T14:06:35;17.45;;;9.90;;
59109;SDS011;44895;47.438;18.978;2023-02-12T14:09:41;17.73;;;10.90;;
59109;SDS011;44895;47.438;18.978;2023-02-12T14:13:21;18.17;;;9.45;;
59109;SDS011;44895;47.438;18.978;2023-02-12T14:22:56;29.73;;;18.83;;
59109;SDS011;44895;47.438;18.978;2023-02-12T14:26:13;27.10;;;17.35;;
59109;SDS011;44895;47.438;18.978;2023-02-12T14:29:19;28.15;;;17.90;;
59109;SDS011;44895;47.438;18.978;2023-02-12T14:36:18;30.70;;;18.63;;
59109;SDS011;44895;47.438;18.978;2023-02-12T14:39:46;28.42;;;18.50;;
59109;SDS011;44895;47.438;18.978;2023-02-12T14:42:54;30.20;;;17.63;;
59109;SDS011;44895;47.438;18.978;2023-02-12T14:49:49;28.30;;;19.88;;
59109;SDS011;44895;47.438;18.978;2023-02-12T14:53:03;31.90;;;21.65;;
59109;SDS011;44895;47.438;18.978;2023-02-12T14:56:17;30.08;;;20.75;;
59109;SDS011;44895;47.438;18.978;2023-02-12T14:59:24;32.72;;;20.90;;
59109;SDS011;44895;47.438;18.978;2023-02-12T15:02:30;37.33;;;21.63;;
59109;SDS011;44895;47.438;18.978;2023-02-12T15:05:41;28.17;;;18.67;;
59109;SDS011;44895;47.438;18.978;2023-02-12T15:08:55;32.72;;;21.52;;
59109;SDS011;44895;47.438;18.978;2023-02-12T15:12:09;31.50;;;21.98;;
59109;SDS011;44895;47.438;18.978;2023-02-12T15:15:26;34.50;;;21.58;;
59109;SDS011;44895;47.438;18.978;2023-02-12T15:21:43;36.53;;;24.67;;
59109;SDS011;44895;47.438;18.978;2023-02-12T15:24:48;36.35;;;22.65;;
59109;SDS011;44895;47.438;18.978;2023-02-12T15:27:54;30.33;;;22.48;;
59109;SDS011;44895;47.438;18.978;2023-02-12T15:31:02;34.90;;;23.55;;
59109;SDS011;44895;47.438;18.978;2023-02-12T15:34:19;32.25;;;22.10;;
59109;SDS011;44895;47.438;18.978;2023-02-12T15:37:28;29.70;;;20.85;;
59109;SDS011;44895;47.438;18.978;2023-02-12T15:40:35;29.67;;;19.63;;
59109;SDS011;44895;47.438;18.978;2023-02-12T15:43:39;32.33;;;21.70;;
59109;SDS011;44895;47.438;18.978;2023-02-12T15:47:08;33.00;;;20.55;;
59109;SDS011;44895;47.438;18.978;2023-02-12T15:50:16;31.38;;;20.83;;
59109;SDS011;44895;47.438;18.978;2023-02-12T15:53:21;31.17;;;22.17;;
59109;SDS011;44895;47.438;18.978;2023-02-12T15:56:27;32.70;;;19.75;;
59109;SDS011;44895;47.438;18.978;2023-02-12T15:59:33;30.27;;;21.35;;
59109;SDS011;44895;47.438;18.978;2023-02-12T16:02:38;33.38;;;21.40;;
59109;SDS011;44895;47.438;18.978;2023-02-12T16:05:43;28.33;;;20.65;;
59109;SDS011;44895;47.438;18.978;2023-02-12T16:08:57;31.83;;;19.58;;
59109;SDS011;44895;47.438;18.978;2023-02-12T16:12:06;29.58;;;19.95;;
59109;SDS011;44895;47.438;18.978;2023-02-12T16:15:29;28.05;;;17.63;;
59109;SDS011;44895;47.438;18.978;2023-02-12T16:18:34;33.72;;;20.30;;
59109;SDS011;44895;47.438;18.978;2023-02-12T16:21:41;34.67;;;22.52;;
59109;SDS011;44895;47.438;18.978;2023-02-12T16:24:46;32.08;;;20.00;;
59109;SDS011;44895;47.438;18.978;2023-02-12T16:31:09;34.58;;;19.38;;
59109;SDS011;44895;47.438;18.978;2023-02-12T16:34:27;35.90;;;22.23;;
59109;SDS011;44895;47.438;18.978;2023-02-12T16:40:41;39.50;;;25.25;;
59109;SDS011;44895;47.438;18.978;2023-02-12T16:44:20;35.78;;;24.45;;
59109;SDS011;44895;47.438;18.978;2023-02-12T16:47:33;35.67;;;23.65;;
59109;SDS011;44895;47.438;18.978;2023-02-12T16:50:42;40.10;;;26.23;;
59109;SDS011;44895;47.438;18.978;2023-02-12T16:53:49;49.33;;;28.33;;
59109;SDS011;44895;47.438;18.978;2023-02-12T16:56:56;43.80;;;27.85;;
59109;SDS011;44895;47.438;18.978;2023-02-12T17:00:02;39.63;;;24.45;;
59109;SDS011;44895;47.438;18.978;2023-02-12T17:03:13;40.20;;;29.08;;
59109;SDS011;44895;47.438;18.978;2023-02-12T17:06:19;44.60;;;28.35;;
59109;SDS011;44895;47.438;18.978;2023-02-12T17:09:24;43.15;;;27.35;;
59109;SDS011;44895;47.438;18.978;2023-02-12T17:12:29;47.45;;;34.30;;
59109;SDS011;44895;47.438;18.978;2023-02-12T17:15:34;47.03;;;31.83;;
59109;SDS011;44895;47.438;18.978;2023-02-12T17:18:45;48.17;;;31.23;;
59109;SDS011;44895;47.438;18.978;2023-02-12T17:21:49;51.10;;;32.22;;
59109;SDS011;44895;47.438;18.978;2023-02-12T17:24:54;58.47;;;34.15;;
59109;SDS011;44895;47.438;18.978;2023-02-12T17:27:59;53.30;;;38.47;;
59109;SDS011;44895;47.438;18.978;2023-02-12T17:31:03;53.75;;;37.15;;
59109;SDS011;44895;47.438;18.978;2023-02-12T17:34:09;51.30;;;36.03;;
59109;SDS011;44895;47.438;18.978;2023-02-12T17:37:14;50.47;;;34.17;;
59109;SDS011;44895;47.438;18.978;2023-02-12T17:40:19;48.65;;;35.10;;
59109;SDS011;44895;47.438;18.978;2023-02-12T17:43:24;46.50;;;32.42;;
59109;SDS011;44895;47.438;18.978;2023-02-12T17:46:29;47.95;;;33.60;;
59109;SDS011;44895;47.438;18.978;2023-02-12T17:49:33;44.63;;;31.52;;
59109;SDS011;44895;47.438;18.978;2023-02-12T17:52:38;42.33;;;30.17;;
59109;SDS011;44895;47.438;18.978;2023-02-12T17:55:43;39.42;;;25.35;;
59109;SDS011;44895;47.438;18.978;2023-02-12T17:58:47;43.65;;;26.80;;
59109;SDS011;44895;47.438;18.978;2023-02-12T18:01:52;41.90;;;26.90;;
59109;SDS011;44895;47.438;18.978;2023-02-12T18:04:58;34.78;;;22.55;;
59109;SDS011;44895;47.438;18.978;2023-02-12T18:08:05;37.17;;;22.02;;
59109;SDS011;44895;47.438;18.978;2023-02-12T18:11:10;39.85;;;24.77;;
59109;SDS011;44895;47.438;18.978;2023-02-12T18:14:14;36.70;;;23.45;;
59109;SDS011;44895;47.438;18.978;2023-02-12T18:17:20;36.08;;;27.25;;
59109;SDS011;44895;47.438;18.978;2023-02-12T18:20:24;38.55;;;25.50;;
59109;SDS011;44895;47.438;18.978;2023-02-12T18:23:29;36.17;;;26.42;;
59109;SDS011;44895;47.438;18.978;2023-02-12T18:26:35;37.70;;;25.75;;
59109;SDS011;44895;47.438;18.978;2023-02-12T18:29:39;43.03;;;29.08;;
59109;SDS011;44895;47.438;18.978;2023-02-12T18:32:43;40.20;;;26.05;;
59109;SDS011;44895;47.438;18.978;2023-02-12T18:42:12;29.23;;;18.30;;
59109;SDS011;44895;47.438;18.978;2023-02-12T18:45:19;28.50;;;16.05;;
59109;SDS011;44895;47.438;18.978;2023-02-12T18:48:24;28.25;;;15.98;;
59109;SDS011;44895;47.438;18.978;2023-02-12T18:51:29;23.45;;;15.05;;
59109;SDS011;44895;47.438;18.978;2023-02-12T18:54:39;24.55;;;14.57;;
59109;SDS011;44895;47.438;18.978;2023-02-12T18:57:47;23.67;;;13.40;;
59109;SDS011;44895;47.438;18.978;2023-02-12T19:00:51;26.77;;;16.88;;
59109;SDS011;44895;47.438;18.978;2023-02-12T19:04:00;29.83;;;16.67;;
59109;SDS011;44895;47.438;18.978;2023-02-12T19:07:06;25.73;;;15.68;;
59109;SDS011;44895;47.438;18.978;2023-02-12T19:10:11;27.70;;;17.48;;
59109;SDS011;44895;47.438;18.978;2023-02-12T19:13:16;27.15;;;17.40;;
59109;SDS011;44895;47.438;18.978;2023-02-12T19:16:20;20.42;;;15.90;;
59109;SDS011;44895;47.438;18.978;2023-02-12T19:19:26;26.98;;;14.77;;
59109;SDS011;44895;47.438;18.978;2023-02-12T19:22:32;29.65;;;17.90;;
59109;SDS011;44895;47.438;18.978;2023-02-12T19:25:37;20.80;;;14.05;;
59109;SDS011;44895;47.438;18.978;2023-02-12T19:28:50;26.40;;;15.45;;
59109;SDS011;44895;47.438;18.978;2023-02-12T19:31:55;28.80;;;14.73;;
59109;SDS011;44895;47.438;18.978;2023-02-12T19:35:01;24.48;;;11.98;;
59109;SDS011;44895;47.438;18.978;2023-02-12T19:38:05;22.75;;;12.60;;
59109;SDS011;44895;47.438;18.978;2023-02-12T19:41:11;18.90;;;10.38;;
59109;SDS011;44895;47.438;18.978;2023-02-12T19:44:18;18.58;;;13.10;;
59109;SDS011;44895;47.438;18.978;2023-02-12T19:47:26;19.75;;;9.73;;
59109;SDS011;44895;47.438;18.978;2023-02-12T19:50:30;19.67;;;11.60;;
59109;SDS011;44895;47.438;18.978;2023-02-12T19:53:36;19.83;;;9.90;;
59109;SDS011;44895;47.438;18.978;2023-02-12T19:56:41;14.38;;;8.73;;
59109;SDS011;44895;47.438;18.978;2023-02-12T19:59:47;16.10;;;8.98;;
59109;SDS011;44895;47.438;18.978;2023-02-12T20:02:55;16.23;;;10.00;;
59109;SDS011;44895;47.438;18.978;2023-02-12T20:06:00;17.42;;;9.93;;
59109;SDS011;44895;47.438;18.978;2023-02-12T20:09:06;19.05;;;8.85;;
59109;SDS011;44895;47.438;18.978;2023-02-12T20:12:11;15.93;;;8.02;;
59109;SDS011;44895;47.438;18.978;2023-02-12T20:15:15;15.88;;;8.90;;
59109;SDS011;44895;47.438;18.978;2023-02-12T20:18:20;18.00;;;8.55;;
59109;SDS011;44895;47.438;18.978;2023-02-12T20:21:26;16.15;;;8.68;;
59109;SDS011;44895;47.438;18.978;2023-02-12T20:24:32;15.73;;;7.95;;
59109;SDS011;44895;47.438;18.978;2023-02-12T20:27:36;22.23;;;10.15;;
59109;SDS011;44895;47.438;18.978;2023-02-12T20:30:42;20.58;;;8.85;;
59109;SDS011;44895;47.438;18.978;2023-02-12T20:33:51;26.70;;;10.93;;
59109;SDS011;44895;47.438;18.978;2023-02-12T20:37:03;22.55;;;9.82;;